sensor_id;sensor_type;location;lat;lon;timestamp;P1;durP1;ratioP1;P2;durP2;ratioP2
9140;SDS011;46330;50.822;7.126;2023-07-20T00:00:32;5.95;;;2.70;;
9140;SDS011;46330;50.822;7.126;2023-07-20T00:03:10;9.50;;;2.92;;
9140;SDS011;46330;50.822;7.126;2023-07-20T00:05:43;7.55;;;2.85;;
9140;SDS011;46330;50.822;7.126;2023-07-20T00:08:11;7.03;;;2.65;;
9140;SDS011;46330;50.822;7.126;2023-07-20T00:10:40;6.95;;;2.83;;
9140;SDS011;46330;50.822;7.126;2023-07-20T00:13:09;6.25;;;2.72;;
9140;SDS011;46330;50.822;7.126;2023-07-20T00:15:38;5.47;;;2.40;;
9140;SDS011;46330;50.822;7.126;2023-07-20T00:18:06;7.88;;;2.70;;
9140;SDS011;46330;50.822;7.126;2023-07-20T00:20:34;7.55;;;2.63;;
9140;SDS011;46330;50.822;7.126;2023-07-20T00:23:03;4.22;;;2.15;;
9140;SDS011;46330;50.822;7.126;2023-07-20T00:25:31;3.70;;;2.30;;
9140;SDS011;46330;50.822;7.126;2023-07-20T00:27:59;5.43;;;2.60;;
9140;SDS011;46330;50.822;7.126;2023-07-20T00:30:28;5.10;;;2.63;;
9140;SDS011;46330;50.822;7.126;2023-07-20T00:32:57;8.23;;;2.78;;
9140;SDS011;46330;50.822;7.126;2023-07-20T00:35:25;6.28;;;2.50;;
9140;SDS011;46330;50.822;7.126;2023-07-20T00:37:53;8.48;;;2.92;;
9140;SDS011;46330;50.822;7.126;2023-07-20T00:40:20;6.13;;;2.45;;
9140;SDS011;46330;50.822;7.126;2023-07-20T00:42:48;9.48;;;2.92;;
9140;SDS011;46330;50.822;7.126;2023-07-20T00:45:22;4.82;;;2.25;;
9140;SDS011;46330;50.822;7.126;2023-07-20T00:47:56;6.30;;;2.95;;
9140;SDS011;46330;50.822;7.126;2023-07-20T00:50:25;5.00;;;2.53;;
9140;SDS011;46330;50.822;7.126;2023-07-20T00:52:54;13.05;;;2.72;;
9140;SDS011;46330;50.822;7.126;2023-07-20T00:55:23;5.88;;;2.80;;
9140;SDS011;46330;50.822;7.126;2023-07-20T00:57:52;4.78;;;2.50;;
9140;SDS011;46330;50.822;7.126;2023-07-20T01:00:20;9.57;;;3.03;;
9140;SDS011;46330;50.822;7.126;2023-07-20T01:02:50;6.00;;;2.70;;
9140;SDS011;46330;50.822;7.126;2023-07-20T01:05:21;5.32;;;2.35;;
9140;SDS011;46330;50.822;7.126;2023-07-20T01:07:55;8.10;;;2.75;;
9140;SDS011;46330;50.822;7.126;2023-07-20T01:10:29;7.45;;;2.70;;
9140;SDS011;46330;50.822;7.126;2023-07-20T01:13:01;8.93;;;2.70;;
9140;SDS011;46330;50.822;7.126;2023-07-20T01:15:34;5.30;;;2.78;;
9140;SDS011;46330;50.822;7.126;2023-07-20T01:18:02;6.78;;;2.80;;
9140;SDS011;46330;50.822;7.126;2023-07-20T01:20:32;5.45;;;2.67;;
9140;SDS011;46330;50.822;7.126;2023-07-20T01:26:17;6.22;;;2.42;;
9140;SDS011;46330;50.822;7.126;2023-07-20T01:29:11;6.13;;;2.35;;
9140;SDS011;46330;50.822;7.126;2023-07-20T01:31:55;4.25;;;2.47;;
9140;SDS011;46330;50.822;7.126;2023-07-20T01:34:25;4.78;;;2.38;;
9140;SDS011;46330;50.822;7.126;2023-07-20T01:36:54;5.38;;;2.40;;
9140;SDS011;46330;50.822;7.126;2023-07-20T01:39:24;6.70;;;2.55;;
9140;SDS011;46330;50.822;7.126;2023-07-20T01:41:52;6.63;;;3.00;;
9140;SDS011;46330;50.822;7.126;2023-07-20T01:44:20;5.07;;;2.85;;
9140;SDS011;46330;50.822;7.126;2023-07-20T01:46:48;5.45;;;2.42;;
9140;SDS011;46330;50.822;7.126;2023-07-20T01:49:18;4.68;;;2.47;;
9140;SDS011;46330;50.822;7.126;2023-07-20T01:51:46;6.43;;;2.47;;
9140;SDS011;46330;50.822;7.126;2023-07-20T01:54:15;4.55;;;2.60;;
9140;SDS011;46330;50.822;7.126;2023-07-20T01:56:45;4.75;;;2.42;;
9140;SDS011;46330;50.822;7.126;2023-07-20T01:59:13;6.22;;;2.88;;
9140;SDS011;46330;50.822;7.126;2023-07-20T02:01:41;5.90;;;2.83;;
9140;SDS011;46330;50.822;7.126;2023-07-20T02:04:10;8.50;;;2.95;;
9140;SDS011;46330;50.822;7.126;2023-07-20T02:06:39;8.32;;;3.10;;
9140;SDS011;46330;50.822;7.126;2023-07-20T02:09:10;4.22;;;2.72;;
9140;SDS011;46330;50.822;7.126;2023-07-20T02:11:39;4.88;;;2.65;;
9140;SDS011;46330;50.822;7.126;2023-07-20T02:14:07;5.68;;;2.92;;
9140;SDS011;46330;50.822;7.126;2023-07-20T02:16:35;5.63;;;2.83;;
9140;SDS011;46330;50.822;7.126;2023-07-20T02:19:03;8.85;;;3.00;;
9140;SDS011;46330;50.822;7.126;2023-07-20T02:21:33;4.90;;;2.63;;
9140;SDS011;46330;50.822;7.126;2023-07-20T02:24:02;7.47;;;2.90;;
9140;SDS011;46330;50.822;7.126;2023-07-20T02:26:31;5.68;;;2.90;;
9140;SDS011;46330;50.822;7.126;2023-07-20T02:28:59;5.80;;;3.10;;
9140;SDS011;46330;50.822;7.126;2023-07-20T02:31:27;6.80;;;3.08;;
9140;SDS011;46330;50.822;7.126;2023-07-20T02:33:54;5.53;;;3.00;;
9140;SDS011;46330;50.822;7.126;2023-07-20T02:36:22;4.05;;;2.70;;
9140;SDS011;46330;50.822;7.126;2023-07-20T02:38:51;7.15;;;2.90;;
9140;SDS011;46330;50.822;7.126;2023-07-20T02:41:20;6.80;;;3.10;;
9140;SDS011;46330;50.822;7.126;2023-07-20T02:43:48;5.95;;;2.92;;
9140;SDS011;46330;50.822;7.126;2023-07-20T02:46:16;5.82;;;3.58;;
9140;SDS011;46330;50.822;7.126;2023-07-20T02:48:44;6.88;;;3.00;;
9140;SDS011;46330;50.822;7.126;2023-07-20T02:51:12;5.05;;;3.10;;
9140;SDS011;46330;50.822;7.126;2023-07-20T02:53:40;6.50;;;3.13;;
9140;SDS011;46330;50.822;7.126;2023-07-20T02:56:08;7.88;;;3.10;;
9140;SDS011;46330;50.822;7.126;2023-07-20T02:58:39;6.57;;;3.33;;
9140;SDS011;46330;50.822;7.126;2023-07-20T03:01:12;7.90;;;3.10;;
9140;SDS011;46330;50.822;7.126;2023-07-20T03:03:42;5.55;;;3.10;;
9140;SDS011;46330;50.822;7.126;2023-07-20T03:06:13;4.28;;;2.60;;
9140;SDS011;46330;50.822;7.126;2023-07-20T03:08:41;6.90;;;3.10;;
9140;SDS011;46330;50.822;7.126;2023-07-20T03:11:13;4.45;;;2.85;;
9140;SDS011;46330;50.822;7.126;2023-07-20T03:13:43;6.63;;;3.22;;
9140;SDS011;46330;50.822;7.126;2023-07-20T03:16:12;8.82;;;3.13;;
9140;SDS011;46330;50.822;7.126;2023-07-20T03:18:41;7.03;;;2.83;;
9140;SDS011;46330;50.822;7.126;2023-07-20T03:21:10;7.07;;;3.10;;
9140;SDS011;46330;50.822;7.126;2023-07-20T03:23:38;7.95;;;2.85;;
9140;SDS011;46330;50.822;7.126;2023-07-20T03:26:07;5.38;;;2.97;;
9140;SDS011;46330;50.822;7.126;2023-07-20T03:28:35;6.78;;;3.38;;
9140;SDS011;46330;50.822;7.126;2023-07-20T03:31:05;6.70;;;3.78;;
9140;SDS011;46330;50.822;7.126;2023-07-20T03:33:37;15.75;;;4.15;;
9140;SDS011;46330;50.822;7.126;2023-07-20T03:36:05;7.53;;;3.63;;
9140;SDS011;46330;50.822;7.126;2023-07-20T03:38:33;5.47;;;2.78;;
9140;SDS011;46330;50.822;7.126;2023-07-20T03:41:01;7.18;;;2.85;;
9140;SDS011;46330;50.822;7.126;2023-07-20T03:43:29;6.32;;;2.80;;
9140;SDS011;46330;50.822;7.126;2023-07-20T03:45:57;8.65;;;2.78;;
9140;SDS011;46330;50.822;7.126;2023-07-20T03:48:26;7.97;;;2.70;;
9140;SDS011;46330;50.822;7.126;2023-07-20T03:50:55;7.93;;;2.85;;
9140;SDS011;46330;50.822;7.126;2023-07-20T03:53:23;7.03;;;2.63;;
9140;SDS011;46330;50.822;7.126;2023-07-20T03:55:52;6.35;;;2.67;;
9140;SDS011;46330;50.822;7.126;2023-07-20T03:58:21;4.65;;;2.58;;
9140;SDS011;46330;50.822;7.126;2023-07-20T04:00:50;5.75;;;3.03;;
9140;SDS011;46330;50.822;7.126;2023-07-20T04:03:19;5.60;;;2.80;;
9140;SDS011;46330;50.822;7.126;2023-07-20T04:05:51;6.03;;;2.70;;
9140;SDS011;46330;50.822;7.126;2023-07-20T04:08:21;6.30;;;2.90;;
9140;SDS011;46330;50.822;7.126;2023-07-20T04:10:50;5.65;;;3.03;;
9140;SDS011;46330;50.822;7.126;2023-07-20T04:13:18;9.50;;;3.30;;
9140;SDS011;46330;50.822;7.126;2023-07-20T04:15:46;7.60;;;2.83;;
9140;SDS011;46330;50.822;7.126;2023-07-20T04:18:14;5.57;;;2.65;;
9140;SDS011;46330;50.822;7.126;2023-07-20T04:20:42;6.90;;;2.42;;
9140;SDS011;46330;50.822;7.126;2023-07-20T04:23:12;6.78;;;2.53;;
9140;SDS011;46330;50.822;7.126;2023-07-20T04:25:40;7.97;;;2.60;;
9140;SDS011;46330;50.822;7.126;2023-07-20T04:28:10;5.22;;;2.50;;
9140;SDS011;46330;50.822;7.126;2023-07-20T04:30:44;6.32;;;3.92;;
9140;SDS011;46330;50.822;7.126;2023-07-20T04:33:12;8.68;;;2.83;;
9140;SDS011;46330;50.822;7.126;2023-07-20T04:35:45;6.70;;;2.80;;
9140;SDS011;46330;50.822;7.126;2023-07-20T04:38:18;5.93;;;2.83;;
9140;SDS011;46330;50.822;7.126;2023-07-20T04:40:51;5.78;;;2.42;;
9140;SDS011;46330;50.822;7.126;2023-07-20T04:43:19;8.75;;;2.53;;
9140;SDS011;46330;50.822;7.126;2023-07-20T04:45:47;7.47;;;2.83;;
9140;SDS011;46330;50.822;7.126;2023-07-20T04:48:16;6.15;;;2.58;;
9140;SDS011;46330;50.822;7.126;2023-07-20T04:50:49;6.72;;;2.83;;
9140;SDS011;46330;50.822;7.126;2023-07-20T04:53:19;7.20;;;3.45;;
9140;SDS011;46330;50.822;7.126;2023-07-20T04:55:48;6.03;;;2.75;;
9140;SDS011;46330;50.822;7.126;2023-07-20T04:58:19;6.15;;;3.03;;
9140;SDS011;46330;50.822;7.126;2023-07-20T05:00:50;7.45;;;3.20;;
9140;SDS011;46330;50.822;7.126;2023-07-20T05:03:20;10.27;;;3.40;;
9140;SDS011;46330;50.822;7.126;2023-07-20T05:05:48;10.00;;;3.60;;
9140;SDS011;46330;50.822;7.126;2023-07-20T05:08:17;12.15;;;4.43;;
9140;SDS011;46330;50.822;7.126;2023-07-20T05:10:48;6.13;;;3.10;;
9140;SDS011;46330;50.822;7.126;2023-07-20T05:13:16;9.15;;;3.33;;
9140;SDS011;46330;50.822;7.126;2023-07-20T05:15:44;7.13;;;3.47;;
9140;SDS011;46330;50.822;7.126;2023-07-20T05:18:15;8.38;;;3.72;;
9140;SDS011;46330;50.822;7.126;2023-07-20T05:20:47;8.48;;;3.33;;
9140;SDS011;46330;50.822;7.126;2023-07-20T05:23:17;9.45;;;4.18;;
9140;SDS011;46330;50.822;7.126;2023-07-20T05:25:47;9.57;;;4.30;;
9140;SDS011;46330;50.822;7.126;2023-07-20T05:28:21;9.65;;;3.97;;
9140;SDS011;46330;50.822;7.126;2023-07-20T05:30:49;8.73;;;3.60;;
9140;SDS011;46330;50.822;7.126;2023-07-20T05:33:19;8.73;;;3.88;;
9140;SDS011;46330;50.822;7.126;2023-07-20T05:35:47;7.40;;;3.65;;
9140;SDS011;46330;50.822;7.126;2023-07-20T05:38:15;8.35;;;3.40;;
9140;SDS011;46330;50.822;7.126;2023-07-20T05:40:44;8.27;;;4.00;;
9140;SDS011;46330;50.822;7.126;2023-07-20T05:43:13;12.13;;;4.40;;
9140;SDS011;46330;50.822;7.126;2023-07-20T05:45:41;13.85;;;4.13;;
9140;SDS011;46330;50.822;7.126;2023-07-20T05:48:10;13.55;;;4.10;;
9140;SDS011;46330;50.822;7.126;2023-07-20T05:50:41;12.57;;;5.10;;
9140;SDS011;46330;50.822;7.126;2023-07-20T05:53:10;9.48;;;4.07;;
9140;SDS011;46330;50.822;7.126;2023-07-20T05:55:38;12.82;;;3.47;;
9140;SDS011;46330;50.822;7.126;2023-07-20T05:58:08;8.45;;;3.70;;
9140;SDS011;46330;50.822;7.126;2023-07-20T06:00:36;9.85;;;3.88;;
9140;SDS011;46330;50.822;7.126;2023-07-20T06:03:04;8.63;;;3.72;;
9140;SDS011;46330;50.822;7.126;2023-07-20T06:05:32;9.05;;;3.72;;
9140;SDS011;46330;50.822;7.126;2023-07-20T06:08:00;7.93;;;3.95;;
9140;SDS011;46330;50.822;7.126;2023-07-20T06:10:28;14.57;;;3.83;;
9140;SDS011;46330;50.822;7.126;2023-07-20T06:12:56;8.90;;;4.10;;
9140;SDS011;46330;50.822;7.126;2023-07-20T06:15:26;13.23;;;4.75;;
9140;SDS011;46330;50.822;7.126;2023-07-20T06:17:55;14.30;;;5.07;;
9140;SDS011;46330;50.822;7.126;2023-07-20T06:20:24;13.43;;;4.20;;
9140;SDS011;46330;50.822;7.126;2023-07-20T06:22:52;10.00;;;3.95;;
9140;SDS011;46330;50.822;7.126;2023-07-20T06:25:21;11.48;;;3.70;;
9140;SDS011;46330;50.822;7.126;2023-07-20T06:27:49;9.32;;;3.70;;
9140;SDS011;46330;50.822;7.126;2023-07-20T06:30:17;8.50;;;3.70;;
9140;SDS011;46330;50.822;7.126;2023-07-20T06:32:51;8.35;;;3.53;;
9140;SDS011;46330;50.822;7.126;2023-07-20T06:35:19;9.38;;;3.60;;
9140;SDS011;46330;50.822;7.126;2023-07-20T06:37:47;10.70;;;3.80;;
9140;SDS011;46330;50.822;7.126;2023-07-20T06:40:15;7.05;;;4.18;;
9140;SDS011;46330;50.822;7.126;2023-07-20T06:42:46;9.25;;;4.25;;
9140;SDS011;46330;50.822;7.126;2023-07-20T06:45:17;6.75;;;3.88;;
9140;SDS011;46330;50.822;7.126;2023-07-20T06:47:45;12.90;;;4.28;;
9140;SDS011;46330;50.822;7.126;2023-07-20T06:50:15;9.98;;;4.30;;
9140;SDS011;46330;50.822;7.126;2023-07-20T06:52:44;8.70;;;4.32;;
9140;SDS011;46330;50.822;7.126;2023-07-20T06:55:14;10.13;;;4.10;;
9140;SDS011;46330;50.822;7.126;2023-07-20T06:57:49;10.30;;;4.43;;
9140;SDS011;46330;50.822;7.126;2023-07-20T07:00:17;9.95;;;5.25;;
9140;SDS011;46330;50.822;7.126;2023-07-20T07:02:45;9.40;;;4.68;;
9140;SDS011;46330;50.822;7.126;2023-07-20T07:05:18;10.05;;;4.40;;
9140;SDS011;46330;50.822;7.126;2023-07-20T07:07:47;9.15;;;4.50;;
9140;SDS011;46330;50.822;7.126;2023-07-20T07:10:15;7.72;;;3.70;;
9140;SDS011;46330;50.822;7.126;2023-07-20T07:12:43;7.70;;;3.75;;
9140;SDS011;46330;50.822;7.126;2023-07-20T07:15:11;7.43;;;3.72;;
9140;SDS011;46330;50.822;7.126;2023-07-20T07:17:39;9.38;;;4.22;;
9140;SDS011;46330;50.822;7.126;2023-07-20T07:20:08;8.13;;;4.32;;
9140;SDS011;46330;50.822;7.126;2023-07-20T07:22:47;9.63;;;3.92;;
9140;SDS011;46330;50.822;7.126;2023-07-20T07:25:19;10.18;;;4.32;;
9140;SDS011;46330;50.822;7.126;2023-07-20T07:27:49;9.10;;;4.00;;
9140;SDS011;46330;50.822;7.126;2023-07-20T07:30:19;9.43;;;4.38;;
9140;SDS011;46330;50.822;7.126;2023-07-20T07:32:47;7.68;;;4.13;;
9140;SDS011;46330;50.822;7.126;2023-07-20T07:35:15;9.15;;;4.63;;
9140;SDS011;46330;50.822;7.126;2023-07-20T07:37:43;9.68;;;4.60;;
9140;SDS011;46330;50.822;7.126;2023-07-20T07:40:33;6.78;;;4.30;;
9140;SDS011;46330;50.822;7.126;2023-07-20T07:43:01;9.05;;;3.90;;
9140;SDS011;46330;50.822;7.126;2023-07-20T07:45:30;6.63;;;3.80;;
9140;SDS011;46330;50.822;7.126;2023-07-20T07:47:59;7.38;;;3.03;;
9140;SDS011;46330;50.822;7.126;2023-07-20T07:50:27;6.57;;;3.58;;
9140;SDS011;46330;50.822;7.126;2023-07-20T07:52:55;7.75;;;3.75;;
9140;SDS011;46330;50.822;7.126;2023-07-20T07:55:23;5.95;;;3.65;;
9140;SDS011;46330;50.822;7.126;2023-07-20T07:57:54;7.75;;;3.80;;
9140;SDS011;46330;50.822;7.126;2023-07-20T08:00:23;7.03;;;4.28;;
9140;SDS011;46330;50.822;7.126;2023-07-20T08:02:51;7.68;;;4.63;;
9140;SDS011;46330;50.822;7.126;2023-07-20T08:05:19;8.68;;;4.05;;
9140;SDS011;46330;50.822;7.126;2023-07-20T08:07:48;8.00;;;3.22;;
9140;SDS011;46330;50.822;7.126;2023-07-20T08:10:16;4.22;;;2.60;;
9140;SDS011;46330;50.822;7.126;2023-07-20T08:12:43;5.63;;;2.63;;
9140;SDS011;46330;50.822;7.126;2023-07-20T08:15:13;5.70;;;2.70;;
9140;SDS011;46330;50.822;7.126;2023-07-20T08:17:41;6.53;;;2.95;;
9140;SDS011;46330;50.822;7.126;2023-07-20T08:20:12;5.10;;;2.80;;
9140;SDS011;46330;50.822;7.126;2023-07-20T08:22:40;5.90;;;2.90;;
9140;SDS011;46330;50.822;7.126;2023-07-20T08:25:09;5.40;;;2.72;;
9140;SDS011;46330;50.822;7.126;2023-07-20T08:27:37;4.95;;;2.40;;
9140;SDS011;46330;50.822;7.126;2023-07-20T08:30:05;4.30;;;2.47;;
9140;SDS011;46330;50.822;7.126;2023-07-20T08:32:35;7.05;;;2.58;;
9140;SDS011;46330;50.822;7.126;2023-07-20T08:35:04;6.68;;;2.72;;
9140;SDS011;46330;50.822;7.126;2023-07-20T08:37:32;7.05;;;3.17;;
9140;SDS011;46330;50.822;7.126;2023-07-20T08:40:00;4.97;;;2.90;;
9140;SDS011;46330;50.822;7.126;2023-07-20T08:42:32;5.63;;;2.80;;
9140;SDS011;46330;50.822;7.126;2023-07-20T08:45:01;6.10;;;2.78;;
9140;SDS011;46330;50.822;7.126;2023-07-20T08:47:33;9.80;;;2.75;;
9140;SDS011;46330;50.822;7.126;2023-07-20T08:50:04;4.07;;;2.45;;
9140;SDS011;46330;50.822;7.126;2023-07-20T08:52:35;4.32;;;2.00;;
9140;SDS011;46330;50.822;7.126;2023-07-20T08:55:04;9.07;;;1.95;;
9140;SDS011;46330;50.822;7.126;2023-07-20T08:57:33;4.05;;;2.25;;
9140;SDS011;46330;50.822;7.126;2023-07-20T09:00:02;4.85;;;2.10;;
9140;SDS011;46330;50.822;7.126;2023-07-20T09:02:33;3.65;;;1.90;;
9140;SDS011;46330;50.822;7.126;2023-07-20T09:05:09;6.25;;;2.05;;
9140;SDS011;46330;50.822;7.126;2023-07-20T09:07:38;7.65;;;2.10;;
9140;SDS011;46330;50.822;7.126;2023-07-20T09:10:07;7.22;;;2.53;;
9140;SDS011;46330;50.822;7.126;2023-07-20T09:12:37;6.18;;;2.30;;
9140;SDS011;46330;50.822;7.126;2023-07-20T09:15:06;7.13;;;2.22;;
9140;SDS011;46330;50.822;7.126;2023-07-20T09:17:34;3.25;;;1.63;;
9140;SDS011;46330;50.822;7.126;2023-07-20T09:20:03;5.20;;;2.10;;
9140;SDS011;46330;50.822;7.126;2023-07-20T09:22:36;5.53;;;1.80;;
9140;SDS011;46330;50.822;7.126;2023-07-20T09:25:06;4.57;;;1.90;;
9140;SDS011;46330;50.822;7.126;2023-07-20T09:27:35;5.47;;;2.40;;
9140;SDS011;46330;50.822;7.126;2023-07-20T09:30:04;5.70;;;2.17;;
9140;SDS011;46330;50.822;7.126;2023-07-20T09:32:38;5.22;;;1.77;;
9140;SDS011;46330;50.822;7.126;2023-07-20T09:35:19;4.95;;;2.00;;
9140;SDS011;46330;50.822;7.126;2023-07-20T09:37:58;5.57;;;1.77;;
9140;SDS011;46330;50.822;7.126;2023-07-20T09:40:30;5.40;;;1.88;;
9140;SDS011;46330;50.822;7.126;2023-07-20T09:43:08;3.60;;;2.13;;
9140;SDS011;46330;50.822;7.126;2023-07-20T09:45:40;4.43;;;2.10;;
9140;SDS011;46330;50.822;7.126;2023-07-20T09:48:11;3.78;;;2.10;;
9140;SDS011;46330;50.822;7.126;2023-07-20T09:50:48;3.85;;;2.00;;
9140;SDS011;46330;50.822;7.126;2023-07-20T09:53:19;3.40;;;2.10;;
9140;SDS011;46330;50.822;7.126;2023-07-20T09:55:47;3.58;;;2.00;;
9140;SDS011;46330;50.822;7.126;2023-07-20T09:58:16;3.63;;;1.80;;
9140;SDS011;46330;50.822;7.126;2023-07-20T10:00:45;4.20;;;1.85;;
9140;SDS011;46330;50.822;7.126;2023-07-20T10:03:20;3.33;;;1.92;;
9140;SDS011;46330;50.822;7.126;2023-07-20T10:05:51;3.08;;;1.70;;
9140;SDS011;46330;50.822;7.126;2023-07-20T10:08:24;4.40;;;1.80;;
9140;SDS011;46330;50.822;7.126;2023-07-20T10:13:27;3.97;;;1.70;;
9140;SDS011;46330;50.822;7.126;2023-07-20T10:15:58;3.85;;;1.90;;
9140;SDS011;46330;50.822;7.126;2023-07-20T10:18:31;5.25;;;1.70;;
9140;SDS011;46330;50.822;7.126;2023-07-20T10:21:02;3.70;;;1.70;;
9140;SDS011;46330;50.822;7.126;2023-07-20T10:23:38;3.08;;;1.38;;
9140;SDS011;46330;50.822;7.126;2023-07-20T10:26:07;2.92;;;1.55;;
9140;SDS011;46330;50.822;7.126;2023-07-20T10:28:36;4.55;;;1.65;;
9140;SDS011;46330;50.822;7.126;2023-07-20T10:31:06;3.08;;;1.40;;
9140;SDS011;46330;50.822;7.126;2023-07-20T10:33:36;2.67;;;1.45;;
9140;SDS011;46330;50.822;7.126;2023-07-20T10:36:05;3.75;;;1.40;;
9140;SDS011;46330;50.822;7.126;2023-07-20T10:38:42;2.00;;;1.27;;
9140;SDS011;46330;50.822;7.126;2023-07-20T10:41:20;5.25;;;3.25;;
9140;SDS011;46330;50.822;7.126;2023-07-20T10:43:51;3.95;;;1.60;;
9140;SDS011;46330;50.822;7.126;2023-07-20T10:46:41;4.43;;;1.55;;
9140;SDS011;46330;50.822;7.126;2023-07-20T10:49:13;4.57;;;1.58;;
9140;SDS011;46330;50.822;7.126;2023-07-20T10:51:43;1.83;;;1.42;;
9140;SDS011;46330;50.822;7.126;2023-07-20T10:57:22;3.97;;;1.80;;
9140;SDS011;46330;50.822;7.126;2023-07-20T11:02:49;3.80;;;1.87;;
9140;SDS011;46330;50.822;7.126;2023-07-20T11:05:31;2.75;;;1.50;;
9140;SDS011;46330;50.822;7.126;2023-07-20T11:08:00;1.92;;;1.30;;
9140;SDS011;46330;50.822;7.126;2023-07-20T11:10:32;1.98;;;1.50;;
9140;SDS011;46330;50.822;7.126;2023-07-20T11:13:15;3.78;;;1.88;;
9140;SDS011;46330;50.822;7.126;2023-07-20T11:15:45;5.10;;;1.70;;
9140;SDS011;46330;50.822;7.126;2023-07-20T11:18:14;2.53;;;1.80;;
9140;SDS011;46330;50.822;7.126;2023-07-20T11:20:42;2.70;;;1.80;;
9140;SDS011;46330;50.822;7.126;2023-07-20T11:23:10;3.20;;;1.50;;
9140;SDS011;46330;50.822;7.126;2023-07-20T11:25:40;2.15;;;1.50;;
9140;SDS011;46330;50.822;7.126;2023-07-20T11:28:08;2.70;;;1.70;;
9140;SDS011;46330;50.822;7.126;2023-07-20T11:30:37;3.97;;;1.70;;
9140;SDS011;46330;50.822;7.126;2023-07-20T11:33:08;2.90;;;1.63;;
9140;SDS011;46330;50.822;7.126;2023-07-20T11:35:39;3.25;;;1.60;;
9140;SDS011;46330;50.822;7.126;2023-07-20T11:38:10;3.05;;;1.65;;
9140;SDS011;46330;50.822;7.126;2023-07-20T11:40:43;5.25;;;1.90;;
9140;SDS011;46330;50.822;7.126;2023-07-20T11:43:11;2.95;;;1.58;;
9140;SDS011;46330;50.822;7.126;2023-07-20T11:45:43;3.08;;;1.45;;
9140;SDS011;46330;50.822;7.126;2023-07-20T11:48:14;3.33;;;1.30;;
9140;SDS011;46330;50.822;7.126;2023-07-20T11:50:43;2.22;;;1.10;;
9140;SDS011;46330;50.822;7.126;2023-07-20T11:53:11;3.38;;;1.50;;
9140;SDS011;46330;50.822;7.126;2023-07-20T11:55:39;1.75;;;1.13;;
9140;SDS011;46330;50.822;7.126;2023-07-20T11:58:10;5.63;;;1.48;;
9140;SDS011;46330;50.822;7.126;2023-07-20T12:00:38;2.05;;;1.30;;
9140;SDS011;46330;50.822;7.126;2023-07-20T12:03:07;2.28;;;1.30;;
9140;SDS011;46330;50.822;7.126;2023-07-20T12:05:37;3.33;;;1.45;;
9140;SDS011;46330;50.822;7.126;2023-07-20T12:08:25;3.15;;;1.50;;
9140;SDS011;46330;50.822;7.126;2023-07-20T12:10:53;4.57;;;1.38;;
9140;SDS011;46330;50.822;7.126;2023-07-20T12:13:23;2.97;;;1.38;;
9140;SDS011;46330;50.822;7.126;2023-07-20T12:15:52;2.30;;;1.27;;
9140;SDS011;46330;50.822;7.126;2023-07-20T12:18:22;2.47;;;1.30;;
9140;SDS011;46330;50.822;7.126;2023-07-20T12:20:58;3.33;;;1.50;;
9140;SDS011;46330;50.822;7.126;2023-07-20T12:23:34;3.05;;;2.15;;
9140;SDS011;46330;50.822;7.126;2023-07-20T12:26:03;2.42;;;1.70;;
9140;SDS011;46330;50.822;7.126;2023-07-20T12:28:35;3.13;;;1.40;;
9140;SDS011;46330;50.822;7.126;2023-07-20T12:31:07;2.55;;;1.40;;
9140;SDS011;46330;50.822;7.126;2023-07-20T12:33:36;1.30;;;1.20;;
9140;SDS011;46330;50.822;7.126;2023-07-20T12:36:04;5.30;;;1.48;;
9140;SDS011;46330;50.822;7.126;2023-07-20T12:38:33;4.07;;;1.30;;
9140;SDS011;46330;50.822;7.126;2023-07-20T12:41:01;4.63;;;1.40;;
9140;SDS011;46330;50.822;7.126;2023-07-20T12:43:30;1.67;;;1.45;;
9140;SDS011;46330;50.822;7.126;2023-07-20T12:46:00;3.00;;;1.38;;
9140;SDS011;46330;50.822;7.126;2023-07-20T12:48:28;3.00;;;1.38;;
9140;SDS011;46330;50.822;7.126;2023-07-20T12:50:56;3.10;;;1.50;;
9140;SDS011;46330;50.822;7.126;2023-07-20T12:53:25;1.58;;;1.27;;
9140;SDS011;46330;50.822;7.126;2023-07-20T12:55:53;2.35;;;1.10;;
9140;SDS011;46330;50.822;7.126;2023-07-20T12:58:21;3.72;;;1.20;;
9140;SDS011;46330;50.822;7.126;2023-07-20T13:00:50;2.05;;;1.10;;
9140;SDS011;46330;50.822;7.126;2023-07-20T13:03:19;5.15;;;1.20;;
9140;SDS011;46330;50.822;7.126;2023-07-20T13:05:50;2.55;;;1.17;;
9140;SDS011;46330;50.822;7.126;2023-07-20T13:08:21;4.35;;;0.73;;
9140;SDS011;46330;50.822;7.126;2023-07-20T13:10:52;2.80;;;1.00;;
9140;SDS011;46330;50.822;7.126;2023-07-20T13:13:20;2.17;;;1.02;;
9140;SDS011;46330;50.822;7.126;2023-07-20T13:15:48;1.92;;;1.08;;
9140;SDS011;46330;50.822;7.126;2023-07-20T13:18:16;4.00;;;1.27;;
9140;SDS011;46330;50.822;7.126;2023-07-20T13:20:46;3.60;;;1.70;;
9140;SDS011;46330;50.822;7.126;2023-07-20T13:23:14;1.65;;;1.20;;
9140;SDS011;46330;50.822;7.126;2023-07-20T13:25:42;2.65;;;1.10;;
9140;SDS011;46330;50.822;7.126;2023-07-20T13:28:10;1.48;;;1.10;;
9140;SDS011;46330;50.822;7.126;2023-07-20T13:30:39;3.15;;;1.10;;
9140;SDS011;46330;50.822;7.126;2023-07-20T13:33:07;4.55;;;1.02;;
9140;SDS011;46330;50.822;7.126;2023-07-20T13:35:39;6.60;;;1.10;;
9140;SDS011;46330;50.822;7.126;2023-07-20T13:38:12;0.88;;;0.80;;
9140;SDS011;46330;50.822;7.126;2023-07-20T13:40:40;2.95;;;1.15;;
9140;SDS011;46330;50.822;7.126;2023-07-20T13:43:09;3.15;;;1.00;;
9140;SDS011;46330;50.822;7.126;2023-07-20T13:45:38;3.47;;;1.02;;
9140;SDS011;46330;50.822;7.126;2023-07-20T13:48:06;2.70;;;1.00;;
9140;SDS011;46330;50.822;7.126;2023-07-20T13:50:35;3.25;;;1.00;;
9140;SDS011;46330;50.822;7.126;2023-07-20T13:53:08;4.88;;;1.10;;
9140;SDS011;46330;50.822;7.126;2023-07-20T13:55:40;1.48;;;0.90;;
9140;SDS011;46330;50.822;7.126;2023-07-20T13:58:11;1.83;;;0.90;;
9140;SDS011;46330;50.822;7.126;2023-07-20T14:00:39;3.75;;;1.17;;
9140;SDS011;46330;50.822;7.126;2023-07-20T14:03:07;2.92;;;1.10;;
9140;SDS011;46330;50.822;7.126;2023-07-20T14:05:38;2.22;;;1.08;;
9140;SDS011;46330;50.822;7.126;2023-07-20T14:08:09;6.95;;;1.23;;
9140;SDS011;46330;50.822;7.126;2023-07-20T14:10:37;3.53;;;1.00;;
9140;SDS011;46330;50.822;7.126;2023-07-20T14:13:11;2.93;;;1.10;;
9140;SDS011;46330;50.822;7.126;2023-07-20T14:15:39;2.47;;;1.08;;
9140;SDS011;46330;50.822;7.126;2023-07-20T14:18:07;2.03;;;1.10;;
9140;SDS011;46330;50.822;7.126;2023-07-20T14:20:35;1.73;;;1.05;;
9140;SDS011;46330;50.822;7.126;2023-07-20T14:23:04;2.13;;;1.17;;
9140;SDS011;46330;50.822;7.126;2023-07-20T14:25:32;5.63;;;1.10;;
9140;SDS011;46330;50.822;7.126;2023-07-20T14:28:05;3.85;;;1.30;;
9140;SDS011;46330;50.822;7.126;2023-07-20T14:30:33;1.20;;;1.10;;
9140;SDS011;46330;50.822;7.126;2023-07-20T14:33:01;3.05;;;1.17;;
9140;SDS011;46330;50.822;7.126;2023-07-20T14:35:29;4.15;;;1.10;;
9140;SDS011;46330;50.822;7.126;2023-07-20T14:37:57;1.65;;;0.95;;
9140;SDS011;46330;50.822;7.126;2023-07-20T14:40:25;4.00;;;1.00;;
9140;SDS011;46330;50.822;7.126;2023-07-20T14:42:55;2.08;;;1.00;;
9140;SDS011;46330;50.822;7.126;2023-07-20T14:45:24;3.13;;;0.85;;
9140;SDS011;46330;50.822;7.126;2023-07-20T14:47:52;1.95;;;1.02;;
9140;SDS011;46330;50.822;7.126;2023-07-20T14:50:21;2.47;;;1.33;;
9140;SDS011;46330;50.822;7.126;2023-07-20T14:52:49;1.73;;;1.00;;
9140;SDS011;46330;50.822;7.126;2023-07-20T14:55:17;2.30;;;1.08;;
9140;SDS011;46330;50.822;7.126;2023-07-20T14:57:45;2.58;;;1.15;;
9140;SDS011;46330;50.822;7.126;2023-07-20T15:00:14;3.72;;;1.00;;
9140;SDS011;46330;50.822;7.126;2023-07-20T15:02:44;3.30;;;1.15;;
9140;SDS011;46330;50.822;7.126;2023-07-20T15:05:12;2.45;;;0.98;;
9140;SDS011;46330;50.822;7.126;2023-07-20T15:07:48;2.35;;;1.17;;
9140;SDS011;46330;50.822;7.126;2023-07-20T15:10:16;4.13;;;0.90;;
9140;SDS011;46330;50.822;7.126;2023-07-20T15:12:44;4.40;;;1.20;;
9140;SDS011;46330;50.822;7.126;2023-07-20T15:15:13;3.22;;;1.20;;
9140;SDS011;46330;50.822;7.126;2023-07-20T15:17:43;1.10;;;1.00;;
9140;SDS011;46330;50.822;7.126;2023-07-20T15:20:12;3.22;;;1.10;;
9140;SDS011;46330;50.822;7.126;2023-07-20T15:22:41;1.92;;;1.20;;
9140;SDS011;46330;50.822;7.126;2023-07-20T15:25:12;3.20;;;1.20;;
9140;SDS011;46330;50.822;7.126;2023-07-20T15:27:40;1.98;;;1.13;;